Time;durP1;ratioP1;P1;durP2;ratioP2;P2;SDS_P1;SDS_P2;PMS_P1;PMS_P2;Temp;Humidity;BMP_temperature;BMP_pressure;BME280_temperature;BME280_humidity;BME280_pressure;Samples;Min_cycle;Max_cycle;Signal;HPM_P1;HPM_P2
2022/03/05 00:00:08;;;;;;;;;46.00;38.50;;;;;13.09;59.24;101295.84;2122668;27;47482;-50
2022/03/05 00:01:09;;;;;;;;;49.80;41.20;;;;;13.06;59.25;101287.91;2121016;27;47403;-51
2022/03/05 00:02:09;;;;;;;;;45.25;38.00;;;;;13.06;59.40;101293.25;2120985;27;47954;-50
2022/03/05 00:03:11;;;;;;;;;47.00;38.25;;;;;13.06;59.53;101303.03;2130674;27;47623;-53
2022/03/05 00:04:12;;;;;;;;;48.60;40.00;;;;;13.06;59.46;101295.03;2130493;27;46416;-54
2022/03/05 00:05:16;;;;;;;;;45.60;39.60;;;;;13.06;59.61;101287.91;2130356;27;48070;-54
2022/03/05 00:06:16;;;;;;;;;47.20;39.80;;;;;13.08;59.48;101287.88;2130541;27;47710;-53
2022/03/05 00:07:19;;;;;;;;;44.25;36.50;;;;;13.08;59.43;101286.09;2130745;27;47309;-50
2022/03/05 00:08:20;;;;;;;;;46.20;37.40;;;;;13.10;59.33;101278.97;2130258;27;47791;-52
2022/03/05 00:09:21;;;;;;;;;44.80;37.40;;;;;13.11;59.31;101285.16;2130665;27;47209;-48
2022/03/05 00:10:21;;;;;;;;;47.25;36.50;;;;;13.11;59.39;101278.03;2124361;27;47612;-50
2022/03/05 00:11:22;;;;;;;;;45.00;38.25;;;;;13.11;59.26;101279.84;2122130;27;47222;-51
2022/03/05 00:12:22;;;;;;;;;50.75;37.75;;;;;13.12;59.34;101278.91;2103432;28;47292;-53
2022/03/05 00:13:23;;;;;;;;;45.25;37.75;;;;;13.11;59.39;101280.72;2107989;27;47960;-51
2022/03/05 00:14:25;;;;;;;;;38.75;35.00;;;;;13.10;59.48;101281.63;2130336;27;47350;-51
2022/03/05 00:15:25;;;;;;;;;45.80;36.80;;;;;13.11;59.43;101286.03;2122392;27;48092;-51
2022/03/05 00:16:26;;;;;;;;;46.50;38.25;;;;;13.12;59.45;101282.47;2121537;27;48094;-54
2022/03/05 00:17:27;;;;;;;;;51.75;41.75;;;;;13.12;59.33;101284.25;2121750;27;47863;-54
2022/03/05 00:18:27;;;;;;;;;42.80;36.60;;;;;13.11;59.37;101278.03;2121501;27;47313;-51
2022/03/05 00:19:28;;;;;;;;;49.75;40.75;;;;;13.11;59.27;101285.16;2121694;27;47637;-50
2022/03/05 00:20:28;;;;;;;;;50.00;40.75;;;;;13.11;59.30;101291.38;2121945;27;47779;-52
2022/03/05 00:21:29;;;;;;;;;45.50;37.00;;;;;13.09;59.35;101279.88;2121639;27;47187;-52
2022/03/05 00:22:29;;;;;;;;;48.50;39.75;;;;;13.10;59.44;101284.28;2121693;27;47455;-51
2022/03/05 00:23:29;;;;;;;;;45.50;37.75;;;;;13.10;59.38;101280.75;2121888;27;47540;-51
2022/03/05 00:24:30;;;;;;;;;45.50;37.50;;;;;13.09;59.53;101279.88;2123973;27;46684;-48
2022/03/05 00:25:30;;;;;;;;;42.25;36.00;;;;;13.08;59.42;101283.41;2130323;27;47130;-52
2022/03/05 00:26:31;;;;;;;;;45.75;38.00;;;;;13.07;59.52;101281.66;2123822;27;47155;-49
2022/03/05 00:27:31;;;;;;;;;44.50;36.25;;;;;13.07;59.52;101279.00;2121538;27;47314;-53
2022/03/05 00:28:32;;;;;;;;;43.25;37.00;;;;;13.06;59.42;101282.56;2125451;27;48021;-51
2022/03/05 00:29:32;;;;;;;;;49.50;40.00;;;;;13.06;59.46;101282.56;2130108;27;47684;-51
2022/03/05 00:30:33;;;;;;;;;50.75;40.25;;;;;13.06;59.51;101279.03;2130169;27;47524;-52
2022/03/05 00:31:33;;;;;;;;;42.50;36.50;;;;;13.05;59.39;101279.94;2129949;27;48315;-52
2022/03/05 00:32:34;;;;;;;;;47.25;38.25;;;;;13.04;59.26;101286.19;2123061;27;47873;-50
2022/03/05 00:33:34;;;;;;;;;42.50;36.25;;;;;13.03;59.31;101285.31;2100013;28;47461;-51
2022/03/05 00:34:35;;;;;;;;;50.00;40.25;;;;;13.03;59.53;101281.78;2103933;28;47367;-52
2022/03/05 00:35:35;;;;;;;;;49.00;39.75;;;;;13.01;59.55;101278.28;2124192;27;47605;-53
2022/03/05 00:36:37;;;;;;;;;45.50;36.25;;;;;13.00;59.59;101277.41;2125110;27;47701;-50
2022/03/05 00:37:38;;;;;;;;;48.40;40.80;;;;;13.00;59.65;101281.88;2129903;27;47727;-51
2022/03/05 00:38:39;;;;;;;;;43.20;36.00;;;;;13.00;59.56;101285.41;2113415;27;47851;-50
2022/03/05 00:39:40;;;;;;;;;43.25;36.50;;;;;12.98;59.51;101279.25;2112673;27;47499;-50
2022/03/05 00:40:41;;;;;;;;;47.20;37.20;;;;;12.98;59.53;101281.91;2121756;27;48027;-52
2022/03/05 00:41:41;;;;;;;;;48.50;40.00;;;;;12.95;59.61;101274.81;2126949;27;47437;-49
2022/03/05 00:42:42;;;;;;;;;42.50;36.00;;;;;12.95;59.83;101279.28;2130095;27;48062;-53
2022/03/05 00:43:42;;;;;;;;;45.00;37.50;;;;;12.94;59.52;101281.06;2130192;27;47764;-55
2022/03/05 00:44:42;;;;;;;;;47.50;38.75;;;;;12.93;59.64;101276.66;2130255;27;47424;-53
2022/03/05 00:45:43;;;;;;;;;45.00;37.75;;;;;12.93;59.76;101278.44;2130065;27;47771;-50
2022/03/05 00:46:43;;;;;;;;;46.00;39.25;;;;;12.93;59.93;101273.13;2122767;27;47445;-50
2022/03/05 00:47:44;;;;;;;;;46.50;38.00;;;;;12.94;59.77;101277.53;2121557;27;46587;-53
2022/03/05 00:48:44;;;;;;;;;48.00;39.75;;;;;12.94;59.70;101280.19;2121645;27;47292;-53
2022/03/05 00:49:45;;;;;;;;;51.75;41.00;;;;;12.95;59.54;101284.59;2121660;27;47209;-51
2022/03/05 00:50:45;;;;;;;;;44.25;36.00;;;;;12.94;59.94;101278.41;2122053;27;47329;-51
2022/03/05 00:51:46;;;;;;;;;50.00;40.75;;;;;12.92;59.75;101274.91;2130155;27;47497;-53
2022/03/05 00:52:46;;;;;;;;;46.75;39.25;;;;;12.93;59.62;101283.78;2117098;27;47547;-50
2022/03/05 00:53:46;;;;;;;;;40.25;34.75;;;;;12.92;59.63;101284.69;2112519;27;47404;-51
2022/03/05 00:54:47;;;;;;;;;46.00;39.00;;;;;12.91;59.65;101291.81;2129422;27;47581;-49
2022/03/05 00:55:48;;;;;;;;;45.50;35.50;;;;;12.91;59.68;101278.47;2129999;27;47979;-52
2022/03/05 00:56:48;;;;;;;;;49.75;40.75;;;;;12.91;59.62;101274.94;2120814;27;47933;-53
2022/03/05 00:57:48;;;;;;;;;48.50;39.00;;;;;12.91;59.50;101278.47;2121028;27;47102;-52
2022/03/05 00:58:49;;;;;;;;;45.75;37.00;;;;;12.92;59.59;101276.69;2130292;27;47459;-51
2022/03/05 00:59:49;;;;;;;;;45.75;39.00;;;;;12.92;59.51;101271.38;2126716;27;47532;-53
2022/03/05 01:00:52;;;;;;;;;36.75;33.50;;;;;12.92;59.47;101279.34;2121201;27;47748;-49
2022/03/05 01:01:53;;;;;;;;;41.80;35.60;;;;;12.90;59.33;101268.75;2121160;27;47661;-50
2022/03/05 01:02:53;;;;;;;;;42.00;36.50;;;;;12.90;59.30;101273.19;2121387;27;47843;-51
2022/03/05 01:03:53;;;;;;;;;46.50;38.75;;;;;12.89;59.44;101279.44;2121481;27;47305;-50
2022/03/05 01:04:54;;;;;;;;;44.00;36.25;;;;;12.87;59.39;101275.94;2122134;27;45438;-51
2022/03/05 01:05:54;;;;;;;;;39.50;35.00;;;;;12.87;59.42;101278.59;2121604;27;47774;-49
2022/03/05 01:06:55;;;;;;;;;39.75;34.25;;;;;12.86;59.38;101279.50;2121342;27;47845;-54
2022/03/05 01:07:55;;;;;;;;;48.50;39.75;;;;;12.87;59.41;101275.94;2116147;27;47517;-50
2022/03/05 01:08:57;;;;;;;;;42.75;37.00;;;;;12.85;59.50;101277.75;2120742;27;47858;-50
2022/03/05 01:09:57;;;;;;;;;37.40;33.60;;;;;12.84;59.41;101276.88;2123222;27;45976;-52
2022/03/05 01:10:58;;;;;;;;;42.25;35.25;;;;;12.84;59.38;101268.88;2121642;27;46139;-50
2022/03/05 01:11:58;;;;;;;;;40.75;34.25;;;;;12.85;59.39;101278.63;2121676;27;47567;-53
2022/03/05 01:12:58;;;;;;;;;33.25;30.50;;;;;12.85;59.22;101275.09;2121244;27;48044;-51
2022/03/05 01:13:59;;;;;;;;;44.50;38.50;;;;;12.84;59.42;101274.22;2122096;27;47380;-51
2022/03/05 01:15:00;;;;;;;;;39.40;35.60;;;;;12.84;59.41;101276.00;2103064;28;46180;-53
2022/03/05 01:16:00;;;;;;;;;41.00;35.50;;;;;12.82;59.41;101283.13;2099685;28;48158;-52
2022/03/05 01:17:01;;;;;;;;;45.25;36.50;;;;;12.79;59.26;101272.53;2121412;27;47117;-54
2022/03/05 01:18:02;;;;;;;;;36.75;33.00;;;;;12.76;59.50;101273.50;2121600;27;47432;-53
2022/03/05 01:19:02;;;;;;;;;43.25;33.00;;;;;12.76;59.72;101277.94;2114254;27;47274;-51
2022/03/05 01:20:03;;;;;;;;;39.25;34.75;;;;;12.76;59.41;101275.28;2121035;27;48068;-52
2022/03/05 01:21:04;;;;;;;;;35.60;33.40;;;;;12.73;59.44;101268.25;2128675;27;46099;-52
2022/03/05 01:22:05;;;;;;;;;34.75;31.00;;;;;12.72;59.62;101274.47;2128788;27;47523;-50
2022/03/05 01:23:05;;;;;;;;;43.75;35.00;;;;;12.74;59.40;101274.44;2130268;27;47434;-51
2022/03/05 01:24:05;;;;;;;;;47.75;39.50;;;;;12.74;59.65;101266.47;2126279;27;47554;-53
2022/03/05 01:25:06;;;;;;;;;45.75;36.25;;;;;12.75;59.72;101271.75;2128389;27;47502;-51
2022/03/05 01:26:07;;;;;;;;;43.00;35.75;;;;;12.75;59.71;101269.09;2122050;27;47480;-51
2022/03/05 01:27:08;;;;;;;;;37.50;34.50;;;;;12.75;59.38;101274.41;2121419;27;47803;-48
2022/03/05 01:28:08;;;;;;;;;39.40;34.20;;;;;12.76;59.63;101275.28;2121202;27;47613;-53
2022/03/05 01:29:09;;;;;;;;;37.50;33.25;;;;;12.76;59.63;101273.50;2121598;27;47645;-51
2022/03/05 01:30:10;;;;;;;;;45.50;37.75;;;;;12.76;59.68;101267.28;2120930;27;47634;-53
2022/03/05 01:31:11;;;;;;;;;35.00;31.40;;;;;12.76;59.55;101265.50;2115093;27;48024;-50
2022/03/05 01:32:12;;;;;;;;;45.00;37.00;;;;;12.76;59.56;101262.84;2116353;27;47928;-50
2022/03/05 01:33:17;;;;;;;;;44.75;38.25;;;;;12.76;59.58;101260.19;2128247;27;47620;-53
2022/03/05 01:34:17;;;;;;;;;43.60;36.40;;;;;12.79;59.67;101261.91;2129633;27;47911;-50
2022/03/05 01:35:18;;;;;;;;;39.50;34.50;;;;;12.79;59.55;101269.88;2130461;27;47782;-54
2022/03/05 01:36:18;;;;;;;;;38.75;33.25;;;;;12.78;59.62;101269.00;2129733;27;47916;-51
2022/03/05 01:37:19;;;;;;;;;39.75;35.00;;;;;12.78;59.52;101262.81;2129923;27;47603;-50
2022/03/05 01:38:19;;;;;;;;;42.75;33.75;;;;;12.76;59.53;101268.16;2130059;27;47660;-48
2022/03/05 01:39:20;;;;;;;;;33.75;31.50;;;;;12.76;59.51;101268.16;2129952;27;47568;-53
2022/03/05 01:40:20;;;;;;;;;47.50;39.00;;;;;12.76;59.65;101267.28;2129814;27;47913;-54
2022/03/05 01:41:21;;;;;;;;;41.00;36.50;;;;;12.76;59.62;101269.97;2122684;27;47927;-50
2022/03/05 01:42:23;;;;;;;;;36.75;33.00;;;;;12.75;59.07;101270.88;2121440;27;47448;-51
2022/03/05 01:43:23;;;;;;;;;41.20;35.40;;;;;12.75;59.60;101265.53;2094361;28;47641;-52
2022/03/05 01:44:24;;;;;;;;;37.50;33.00;;;;;12.75;59.48;101276.19;2100030;27;47231;-52
2022/03/05 01:45:25;;;;;;;;;46.50;38.25;;;;;12.72;59.47;101265.63;2121162;27;47882;-52
2022/03/05 01:46:31;;;;;;;;;45.60;38.20;;;;;12.71;59.50;101269.19;2121430;27;47752;-54
2022/03/05 01:47:31;;;;;;;;;46.40;38.60;;;;;12.70;59.61;101270.94;2107445;27;48090;-50
2022/03/05 01:48:32;;;;;;;;;36.50;34.00;;;;;12.71;59.54;101271.84;2111929;27;48132;-51
2022/03/05 01:49:32;;;;;;;;;37.00;32.25;;;;;12.71;59.56;101272.72;2121430;27;47879;-51
2022/03/05 01:50:33;;;;;;;;;40.00;34.50;;;;;12.71;59.52;101267.41;2120878;27;47615;-54
2022/03/05 01:51:34;;;;;;;;;44.25;36.00;;;;;12.70;59.38;101265.63;2121582;27;47660;-51
2022/03/05 01:52:35;;;;;;;;;44.25;37.50;;;;;12.70;59.50;101270.06;2121424;27;45735;-49
2022/03/05 01:53:35;;;;;;;;;40.75;34.25;;;;;12.70;59.60;101268.28;2102602;27;47782;-49
2022/03/05 01:54:38;;;;;;;;;38.75;35.00;;;;;12.70;59.49;101270.94;2104424;28;47480;-52
2022/03/05 01:55:39;;;;;;;;;38.60;33.40;;;;;12.71;59.52;101269.19;2122712;27;47704;-53
2022/03/05 01:56:40;;;;;;;;;41.00;33.75;;;;;12.71;59.50;101267.41;2127950;27;47732;-52
2022/03/05 01:57:40;;;;;;;;;42.80;36.20;;;;;12.70;59.51;101264.75;2122709;27;48189;-53
2022/03/05 01:58:41;;;;;;;;;41.25;36.00;;;;;12.68;59.52;101265.66;2122810;27;47511;-53
2022/03/05 01:59:41;;;;;;;;;35.75;33.50;;;;;12.68;59.54;101267.44;2122679;27;47373;-50
2022/03/05 02:00:42;;;;;;;;;39.75;34.00;;;;;12.67;59.49;101273.69;2122550;27;48120;-49
2022/03/05 02:01:42;;;;;;;;;36.75;31.25;;;;;12.66;59.58;101262.16;2122611;27;47450;-52
2022/03/05 02:02:43;;;;;;;;;39.75;35.75;;;;;12.67;59.68;101273.69;2122605;27;47970;-50
2022/03/05 02:03:44;;;;;;;;;41.00;34.80;;;;;12.65;59.48;101273.72;2122654;27;48053;-53
2022/03/05 02:04:44;;;;;;;;;46.00;36.50;;;;;12.66;59.64;101267.47;2122648;27;47344;-51
2022/03/05 02:05:45;;;;;;;;;44.25;37.00;;;;;12.64;59.50;101271.09;2122654;27;47260;-53
2022/03/05 02:06:45;;;;;;;;;41.75;34.75;;;;;12.64;59.55;101273.75;2122563;27;47483;-50
2022/03/05 02:07:46;;;;;;;;;41.75;34.25;;;;;12.62;59.68;101273.78;2122512;27;47488;-55
2022/03/05 02:08:47;;;;;;;;;39.20;34.40;;;;;12.63;59.56;101269.34;2123830;27;47736;-53
2022/03/05 02:09:48;;;;;;;;;40.80;35.20;;;;;12.62;59.68;101267.59;2131225;27;47531;-50
2022/03/05 02:10:48;;;;;;;;;45.25;36.25;;;;;12.62;59.60;101270.25;2126506;27;47824;-50
2022/03/05 02:11:49;;;;;;;;;45.50;35.25;;;;;12.60;59.47;101272.97;2122827;27;48314;-51
2022/03/05 02:12:49;;;;;;;;;44.50;37.00;;;;;12.59;59.50;101267.66;2123129;27;47403;-50
2022/03/05 02:13:50;;;;;;;;;35.50;32.75;;;;;12.58;59.54;101268.59;2122663;27;48013;-52
2022/03/05 02:14:50;;;;;;;;;43.50;33.50;;;;;12.57;59.65;101267.69;2122556;27;47606;-52
2022/03/05 02:15:55;;;;;;;;;38.25;33.75;;;;;12.56;59.63;101273.91;2122221;27;47662;-51
2022/03/05 02:16:56;;;;;;;;;46.20;34.40;;;;;12.57;59.72;101269.47;2122560;27;47792;-53
2022/03/05 02:17:56;;;;;;;;;41.25;35.75;;;;;12.57;59.72;101273.00;2122331;27;47475;-49
2022/03/05 02:18:57;;;;;;;;;35.00;30.75;;;;;12.56;59.76;101271.25;2128336;27;47451;-52
2022/03/05 02:19:58;;;;;;;;;37.00;33.25;;;;;12.55;59.57;101268.63;2130406;27;47778;-51
2022/03/05 02:20:58;;;;;;;;;37.25;32.75;;;;;12.54;59.64;101265.09;2104474;28;48005;-53
2022/03/05 02:21:59;;;;;;;;;38.25;33.50;;;;;12.53;59.74;101271.31;2108168;27;48375;-50
2022/03/05 02:22:59;;;;;;;;;40.00;34.00;;;;;12.54;59.60;101272.19;2131598;27;47217;-53
2022/03/05 02:24:00;;;;;;;;;47.00;37.00;;;;;12.52;59.61;101271.34;2123888;27;47560;-54
2022/03/05 02:25:03;;;;;;;;;45.50;37.50;;;;;12.53;59.77;101267.78;2126607;27;48345;-52
2022/03/05 02:26:03;;;;;;;;;30.60;29.20;;;;;12.51;59.57;101270.47;2113108;27;47270;-54
2022/03/05 02:27:05;;;;;;;;;44.50;35.75;;;;;12.51;59.84;101269.59;2113573;27;47506;-53
2022/03/05 02:28:05;;;;;;;;;42.00;36.00;;;;;12.49;59.63;101269.63;2122251;27;47524;-50
2022/03/05 02:29:06;;;;;;;;;46.00;37.25;;;;;12.48;59.66;101270.56;2122547;27;47408;-54
2022/03/05 02:30:08;;;;;;;;;39.75;33.75;;;;;12.48;59.75;101273.22;2122183;27;47347;-50
2022/03/05 02:31:10;;;;;;;;;33.40;29.20;;;;;12.47;59.86;101268.81;2122518;27;47843;-50
2022/03/05 02:32:10;;;;;;;;;43.80;37.20;;;;;12.47;59.79;101270.59;2122481;27;47894;-54
2022/03/05 02:33:10;;;;;;;;;39.75;34.00;;;;;12.46;59.99;101266.19;2113355;27;46482;-49
2022/03/05 02:34:11;;;;;;;;;36.25;30.50;;;;;12.45;59.98;101270.63;2113075;27;47659;-50
2022/03/05 02:35:11;;;;;;;;;43.75;34.50;;;;;12.44;59.98;101265.31;2122401;27;47920;-51
2022/03/05 02:36:12;;;;;;;;;37.75;33.75;;;;;12.43;59.78;101264.44;2122343;27;47154;-50
2022/03/05 02:37:15;;;;;;;;;38.50;33.25;;;;;12.42;60.07;101265.34;2122311;27;48457;-51
2022/03/05 02:38:18;;;;;;;;;42.80;36.60;;;;;12.43;60.07;101267.09;2122602;27;47231;-51
2022/03/05 02:39:18;;;;;;;;;41.00;33.60;;;;;12.43;60.01;101268.88;2122766;27;47815;-53
2022/03/05 02:40:18;;;;;;;;;40.25;35.25;;;;;12.41;60.04;101268.91;2123605;27;48260;-49
2022/03/05 02:41:19;;;;;;;;;42.25;36.00;;;;;12.41;60.01;101268.03;2131031;27;47306;-53
2022/03/05 02:42:19;;;;;;;;;44.25;37.25;;;;;12.41;60.10;101266.25;2125959;27;48233;-50
2022/03/05 02:43:21;;;;;;;;;38.25;34.75;;;;;12.41;60.16;101262.72;2122315;27;47556;-50
2022/03/05 02:44:22;;;;;;;;;43.80;34.00;;;;;12.40;60.36;101259.16;2122193;27;47437;-54
2022/03/05 02:45:23;;;;;;;;;38.60;34.80;;;;;12.40;60.01;101259.16;2125465;27;47621;-51
2022/03/05 02:46:28;;;;;;;;;39.75;35.50;;;;;12.41;59.96;101270.69;2130943;27;48011;-51
2022/03/05 02:47:28;;;;;;;;;42.40;35.60;;;;;12.41;60.12;101265.38;2123396;27;47917;-51
2022/03/05 02:48:29;;;;;;;;;42.50;36.50;;;;;12.41;60.21;101254.72;2122569;27;47196;-54
2022/03/05 02:49:30;;;;;;;;;42.20;37.20;;;;;12.41;60.20;101263.59;2122265;27;46482;-50
2022/03/05 02:50:31;;;;;;;;;45.00;36.00;;;;;12.41;60.19;101258.25;2122693;27;47342;-49
2022/03/05 02:51:31;;;;;;;;;40.00;34.40;;;;;12.43;60.23;101264.44;2122193;27;47398;-51
2022/03/05 02:52:31;;;;;;;;;40.75;36.00;;;;;12.43;60.02;101260.88;2122445;27;47201;-52
2022/03/05 02:53:32;;;;;;;;;32.00;30.00;;;;;12.44;60.22;101259.97;2122215;27;47062;-51
2022/03/05 02:54:33;;;;;;;;;39.50;35.75;;;;;12.43;60.09;101256.44;2122784;27;47769;-51
2022/03/05 02:55:34;;;;;;;;;41.00;34.25;;;;;12.43;60.09;101258.22;2122487;27;47723;-53
2022/03/05 02:56:35;;;;;;;;;37.00;33.40;;;;;12.44;59.93;101257.31;2122301;27;47839;-51
2022/03/05 02:57:35;;;;;;;;;45.75;37.00;;;;;12.42;59.83;101252.03;2110129;27;47840;-51
2022/03/05 02:58:35;;;;;;;;;36.50;33.50;;;;;12.42;60.02;101257.34;2112825;27;47380;-51
2022/03/05 02:59:36;;;;;;;;;34.75;32.00;;;;;12.42;59.99;101253.81;2122165;27;48327;-52
2022/03/05 03:00:37;;;;;;;;;45.75;35.75;;;;;12.41;59.92;101252.94;2126900;27;47257;-51
2022/03/05 03:01:37;;;;;;;;;36.50;32.25;;;;;12.42;60.03;101253.81;2130618;27;47850;-52
2022/03/05 03:02:38;;;;;;;;;40.50;34.50;;;;;12.41;60.00;101252.06;2130970;27;47177;-52
2022/03/05 03:03:39;;;;;;;;;38.40;32.60;;;;;12.42;60.07;101248.50;2130857;27;47432;-54
2022/03/05 03:04:39;;;;;;;;;39.25;32.00;;;;;12.42;59.92;101254.69;2130698;27;47282;-49
2022/03/05 03:05:39;;;;;;;;;36.25;32.75;;;;;12.44;59.90;101257.31;2131032;27;48086;-52
2022/03/05 03:06:40;;;;;;;;;30.50;30.00;;;;;12.41;59.62;101254.72;2130818;27;47374;-51
2022/03/05 03:07:41;;;;;;;;;33.25;31.25;;;;;12.42;60.00;101256.47;2131189;27;47200;-52
2022/03/05 03:08:41;;;;;;;;;38.25;34.25;;;;;12.41;59.83;101252.94;2125879;27;48062;-53
2022/03/05 03:09:42;;;;;;;;;32.50;31.75;;;;;12.40;59.91;101251.19;2122792;27;47247;-49
2022/03/05 03:10:43;;;;;;;;;37.20;33.20;;;;;12.38;59.79;101259.22;2122189;27;48026;-53
2022/03/05 03:11:43;;;;;;;;;37.25;34.00;;;;;12.37;59.88;101253.91;2122114;27;47235;-52
2022/03/05 03:12:44;;;;;;;;;34.75;32.00;;;;;12.36;59.82;101255.72;2122378;27;47432;-53
2022/03/05 03:13:44;;;;;;;;;36.60;32.60;;;;;12.35;59.86;101248.63;2121916;27;47355;-52
2022/03/05 03:14:45;;;;;;;;;40.00;34.00;;;;;12.35;59.98;101253.09;2121940;27;47391;-51
2022/03/05 03:15:45;;;;;;;;;35.75;32.25;;;;;12.36;60.01;101258.38;2122478;27;47420;-50
2022/03/05 03:16:45;;;;;;;;;35.50;33.00;;;;;12.37;59.96;101252.13;2122259;27;46947;-52
2022/03/05 03:17:49;;;;;;;;;32.00;30.00;;;;;12.36;59.98;101249.50;2122200;27;48322;-52
2022/03/05 03:18:50;;;;;;;;;40.40;32.20;;;;;12.38;59.97;101253.88;2122153;27;47584;-52
2022/03/05 03:19:50;;;;;;;;;39.50;34.00;;;;;12.38;59.87;101248.56;2126292;27;47517;-52
2022/03/05 03:20:51;;;;;;;;;41.75;35.75;;;;;12.41;59.85;101252.06;2130895;27;48023;-51
2022/03/05 03:21:51;;;;;;;;;35.25;33.50;;;;;12.41;59.93;101254.72;2130584;27;47818;-52
2022/03/05 03:22:52;;;;;;;;;38.25;33.50;;;;;12.41;59.87;101254.72;2130726;27;47845;-53
2022/03/05 03:23:52;;;;;;;;;32.80;31.00;;;;;12.41;59.89;101252.94;2130941;27;47668;-49
2022/03/05 03:24:53;;;;;;;;;34.00;31.25;;;;;12.41;59.59;101252.06;2130866;27;47644;-50
2022/03/05 03:25:53;;;;;;;;;39.00;33.75;;;;;12.38;59.86;101248.56;2105366;27;48116;-50
2022/03/05 03:26:53;;;;;;;;;36.25;32.25;;;;;12.39;59.72;101252.09;2105780;27;47845;-51
2022/03/05 03:27:54;;;;;;;;;42.25;33.00;;;;;12.37;59.47;101254.78;2131025;27;47133;-53
2022/03/05 03:28:54;;;;;;;;;40.25;33.75;;;;;12.37;59.52;101244.16;2125406;27;47514;-49
2022/03/05 03:29:55;;;;;;;;;32.25;31.00;;;;;12.37;59.76;101252.13;2121783;27;47461;-51
2022/03/05 03:30:55;;;;;;;;;43.50;36.25;;;;;12.38;59.77;101253.00;2103434;28;47171;-53
2022/03/05 03:31:56;;;;;;;;;38.25;33.50;;;;;12.38;59.85;101258.34;2104960;27;48075;-52
2022/03/05 03:32:56;;;;;;;;;37.25;34.25;;;;;12.37;59.60;101251.25;2122345;27;47105;-50
2022/03/05 03:33:57;;;;;;;;;38.25;33.50;;;;;12.37;59.61;101254.78;2129468;27;47246;-49
2022/03/05 03:34:57;;;;;;;;;41.50;34.50;;;;;12.38;59.68;101256.53;2130729;27;47628;-50
2022/03/05 03:35:57;;;;;;;;;37.25;33.00;;;;;12.39;59.69;101260.09;2130899;27;47930;-50
2022/03/05 03:36:58;;;;;;;;;37.25;33.25;;;;;12.39;59.74;101260.09;2130562;27;47505;-53
2022/03/05 03:37:58;;;;;;;;;42.25;36.25;;;;;12.40;59.54;101258.28;2130936;27;47720;-51
2022/03/05 03:38:59;;;;;;;;;46.00;36.75;;;;;12.39;59.84;101257.41;2130829;27;47664;-54
2022/03/05 03:40:01;;;;;;;;;42.75;36.00;;;;;12.39;59.74;101257.41;2130808;27;47445;-49
2022/03/05 03:41:01;;;;;;;;;37.80;33.80;;;;;12.40;59.64;101251.19;2130963;27;47641;-50
2022/03/05 03:42:02;;;;;;;;;44.50;38.50;;;;;12.40;59.74;101255.63;2123387;27;47187;-54
2022/03/05 03:43:02;;;;;;;;;38.25;33.00;;;;;12.40;59.52;101255.63;2113099;27;47250;-52
2022/03/05 03:44:03;;;;;;;;;40.25;34.75;;;;;12.38;59.74;101248.56;2112836;27;47147;-54
2022/03/05 03:45:05;;;;;;;;;38.75;34.50;;;;;12.38;59.68;101251.22;2112469;27;47499;-52
2022/03/05 03:46:06;;;;;;;;;41.40;36.00;;;;;12.38;59.60;101245.03;2121911;27;47076;-53
2022/03/05 03:47:06;;;;;;;;;35.75;33.25;;;;;12.37;59.77;101249.47;2122085;27;48033;-49
2022/03/05 03:48:07;;;;;;;;;40.25;33.25;;;;;12.38;59.69;101250.34;2121848;27;47610;-52
2022/03/05 03:49:07;;;;;;;;;43.00;36.00;;;;;12.36;59.65;101245.06;2122139;27;47540;-52
2022/03/05 03:50:09;;;;;;;;;43.75;36.00;;;;;12.36;59.61;101245.06;2122222;27;47335;-51
2022/03/05 03:51:10;;;;;;;;;42.20;34.80;;;;;12.35;59.80;101253.97;2121757;27;48027;-50
2022/03/05 03:52:10;;;;;;;;;39.75;35.50;;;;;12.35;59.76;101248.63;2122119;27;47667;-52
2022/03/05 03:53:10;;;;;;;;;39.25;33.50;;;;;12.33;59.62;101250.44;2122065;27;47283;-53
2022/03/05 03:54:11;;;;;;;;;44.50;36.25;;;;;12.33;59.66;101254.91;2122471;27;47913;-51
2022/03/05 03:55:14;;;;;;;;;35.25;31.00;;;;;12.32;59.79;101250.47;2127061;27;46653;-52
2022/03/05 03:56:15;;;;;;;;;38.80;33.80;;;;;12.30;59.83;101242.50;2121961;27;47568;-52
2022/03/05 03:57:16;;;;;;;;;42.50;35.25;;;;;12.31;59.92;101254.03;2109952;27;47426;-53
2022/03/05 03:58:16;;;;;;;;;36.25;33.00;;;;;12.31;59.65;101254.03;2112426;27;47485;-51
2022/03/05 03:59:17;;;;;;;;;39.00;34.00;;;;;12.32;59.77;101251.38;2130197;27;47769;-52
2022/03/05 04:00:19;;;;;;;;;43.25;35.50;;;;;12.32;59.41;101256.69;2130405;27;47715;-50
2022/03/05 04:01:19;;;;;;;;;44.00;35.20;;;;;12.32;59.82;101251.38;2129995;27;47896;-49
2022/03/05 04:02:21;;;;;;;;;37.25;33.75;;;;;12.32;59.85;101248.69;2112815;27;48082;-52
2022/03/05 04:03:22;;;;;;;;;44.60;34.00;;;;;12.32;59.91;101248.69;2116731;27;47877;-52
2022/03/05 04:04:22;;;;;;;;;36.50;32.75;;;;;12.32;59.87;101247.78;2130422;27;47321;-49
2022/03/05 04:05:23;;;;;;;;;35.75;30.75;;;;;12.32;59.74;101256.69;2122627;27;47612;-51
2022/03/05 04:06:23;;;;;;;;;40.25;34.00;;;;;12.31;59.71;101246.91;2111881;27;47296;-49
2022/03/05 04:08:43;;;;;;;;;39.80;35.20;;;;;12.28;59.75;101247.00;2130360;27;47851;-54
2022/03/05 04:09:43;;;;;;;;;45.75;35.75;;;;;12.26;59.78;101254.13;2126947;27;47541;-53
2022/03/05 04:10:44;;;;;;;;;43.75;36.75;;;;;12.24;59.77;101252.41;2121975;27;47548;-50
2022/03/05 04:11:44;;;;;;;;;33.50;32.00;;;;;12.23;59.85;101256.00;2121610;27;47860;-52
2022/03/05 04:12:45;;;;;;;;;38.00;33.25;;;;;12.22;59.77;101256.91;2121980;27;47813;-52
2022/03/05 04:13:47;;;;;;;;;37.75;34.00;;;;;12.20;59.90;101248.94;2121671;27;47462;-52
2022/03/05 04:14:47;;;;;;;;;36.80;33.40;;;;;12.21;59.61;101252.47;2121552;27;47181;-52
2022/03/05 04:15:48;;;;;;;;;31.25;28.75;;;;;12.20;59.81;101251.59;2121877;27;47500;-52
2022/03/05 04:16:48;;;;;;;;;37.00;32.75;;;;;12.21;59.90;101249.81;2120929;27;47530;-56
2022/03/05 04:17:50;;;;;;;;;42.00;35.00;;;;;12.20;59.96;101246.28;2121858;27;47700;-51
2022/03/05 04:18:51;;;;;;;;;38.20;33.00;;;;;12.21;59.92;101249.81;2121740;27;48412;-51
2022/03/05 04:19:51;;;;;;;;;37.75;33.25;;;;;12.20;59.76;101248.94;2128930;27;47825;-54
2022/03/05 04:20:51;;;;;;;;;41.25;36.25;;;;;12.20;59.80;101251.59;2128518;27;47804;-55
2022/03/05 04:21:52;;;;;;;;;31.75;29.50;;;;;12.21;59.55;101249.81;2122321;27;48185;-53
2022/03/05 04:22:52;;;;;;;;;35.50;32.00;;;;;12.19;59.99;101249.81;2121600;27;46716;-52
2022/03/05 04:23:53;;;;;;;;;38.75;31.00;;;;;12.17;59.68;101256.09;2121735;27;47345;-53
2022/03/05 04:24:53;;;;;;;;;36.75;32.75;;;;;12.16;59.60;101251.69;2124147;27;47780;-52
2022/03/05 04:25:54;;;;;;;;;39.50;33.50;;;;;12.15;60.01;101241.94;2121992;27;47038;-52
2022/03/05 04:26:54;;;;;;;;;36.75;32.75;;;;;12.14;59.92;101249.06;2121715;27;47429;-51
2022/03/05 04:27:55;;;;;;;;;39.25;34.00;;;;;12.13;59.78;101251.75;2123027;27;47860;-53
2022/03/05 04:28:55;;;;;;;;;43.50;35.25;;;;;12.12;59.83;101253.53;2130128;27;47877;-50
2022/03/05 04:29:56;;;;;;;;;30.50;29.50;;;;;12.11;59.82;101257.09;2125692;27;47610;-54
2022/03/05 04:30:56;;;;;;;;;38.75;35.75;;;;;12.11;59.69;101256.22;2121666;27;47561;-53
2022/03/05 04:31:56;;;;;;;;;33.50;28.50;;;;;12.10;59.83;101257.13;2121574;27;47714;-49
2022/03/05 04:32:57;;;;;;;;;45.50;36.25;;;;;12.08;59.91;101258.03;2121748;27;48137;-50
2022/03/05 04:33:57;;;;;;;;;38.00;35.00;;;;;12.07;59.69;101253.63;2122100;27;47865;-49
2022/03/05 04:34:58;;;;;;;;;44.75;34.75;;;;;12.07;59.92;101258.94;2127819;27;47624;-51
2022/03/05 04:35:58;;;;;;;;;40.75;34.25;;;;;12.08;59.75;101262.50;2110699;27;47558;-49
2022/03/05 04:36:59;;;;;;;;;46.00;39.75;;;;;12.07;59.66;101260.75;2103439;28;47217;-51